Cheneyville, Louisiana
Current Conditions -  °F | °C
As of 11:53 AM on Sunday 25 Jan 2015 (Local Time) from KESF Reporting Station
Clear Clear  
Wind Chill: 66°   Ceiling: Unl
Heat Index: 66°   Visibility: 10mi
Dew Point: 41°   Wind: 22mph
Humidity: 40%   Direction: 250°WSW
Pressure: 29.89"   Gusts: 28mph
Location:  31.01°N, 92.29°W
Report Text: KESF 251753Z AUTO 25019G24KT 10SM CLR 19/05 A2989 RMK AO2 SLP121 T01890050 10194 21011 58022
Loading
Personal Weather Stations






























Interactive Weather Map New forecast layout! Learn more

10-Day Weather Forecast

Advertisements
Track Severe Weather on mobile